createdAt,value
2023-05-12T00:01:19.987Z,1.33
2023-05-12T00:03:50.050Z,1.70
2023-05-12T00:06:19.365Z,1.57
2023-05-12T00:08:50.023Z,1.37
2023-05-12T00:11:19.784Z,1.33
2023-05-12T00:13:57.799Z,1.43
2023-05-12T00:16:27.201Z,1.23
2023-05-12T00:18:55.185Z,1.50
2023-05-12T00:21:36.790Z,1.03
2023-05-12T00:24:07.117Z,1.40
2023-05-12T00:26:44.871Z,1.33
2023-05-12T00:29:18.889Z,1.40
2023-05-12T00:34:31.669Z,1.53
2023-05-12T00:37:02.928Z,1.47
2023-05-12T00:39:33.880Z,1.85
2023-05-12T00:42:11.056Z,1.70
2023-05-12T00:44:42.838Z,1.73
2023-05-12T00:47:15.374Z,1.70
2023-05-12T00:49:45.908Z,1.48
2023-05-12T00:52:20.964Z,1.30
2023-05-12T00:54:51.502Z,1.30
2023-05-12T00:57:22.050Z,1.35
2023-05-12T01:00:00.304Z,1.40
2023-05-12T01:02:42.150Z,1.13
2023-05-12T01:05:15.781Z,1.73
2023-05-12T01:07:52.545Z,1.47
2023-05-12T01:10:29.431Z,1.90
2023-05-12T01:13:07.144Z,1.60
2023-05-12T01:15:48.438Z,1.40
2023-05-12T01:18:20.651Z,1.63
2023-05-12T01:21:04.456Z,1.60
2023-05-12T01:23:41.502Z,1.20
2023-05-12T01:26:19.219Z,1.70
2023-05-12T01:28:52.616Z,1.30
2023-05-12T01:31:21.617Z,1.90
2023-05-12T01:33:52.224Z,1.93
2023-05-12T01:36:20.751Z,1.80
2023-05-12T01:38:55.278Z,1.60
2023-05-12T01:41:28.104Z,1.77
2023-05-12T01:44:10.977Z,2.13
2023-05-12T01:46:55.066Z,2.23
2023-05-12T01:49:36.085Z,1.90
2023-05-12T01:52:05.817Z,2.13
2023-05-12T01:54:36.857Z,1.67
2023-05-12T01:57:22.211Z,2.33
2023-05-12T01:59:56.098Z,1.83
2023-05-12T02:02:43.066Z,1.70
2023-05-12T02:05:18.515Z,1.80
2023-05-12T02:07:49.975Z,1.60
2023-05-12T02:10:19.859Z,2.07
2023-05-12T02:12:49.424Z,1.60
2023-05-12T02:15:21.781Z,2.30
2023-05-12T02:18:03.454Z,2.05
2023-05-12T02:20:37.263Z,1.67
2023-05-12T02:23:08.296Z,2.13
2023-05-12T02:25:45.948Z,1.77
2023-05-12T02:28:28.062Z,2.23
2023-05-12T02:30:58.166Z,1.40
2023-05-12T02:33:30.440Z,2.13
2023-05-12T02:36:01.048Z,1.65
2023-05-12T02:41:06.919Z,1.93
2023-05-12T02:43:40.722Z,1.37
2023-05-12T02:46:11.897Z,1.97
2023-05-12T02:48:43.243Z,2.00
2023-05-12T02:51:12.204Z,1.88
2023-05-12T02:53:42.430Z,2.07
2023-05-12T02:56:16.254Z,1.37
2023-05-12T02:58:46.590Z,1.77
2023-05-12T03:01:18.445Z,2.13
2023-05-12T03:06:22.125Z,1.55
2023-05-12T03:14:03.372Z,2.10
2023-05-12T03:16:37.344Z,1.63
2023-05-12T03:19:06.487Z,1.83
2023-05-12T03:21:37.846Z,2.00
2023-05-12T03:24:16.702Z,2.28
2023-05-12T03:26:49.338Z,2.07
2023-05-12T03:29:27.032Z,1.67
2023-05-12T03:32:00.281Z,1.60
2023-05-12T03:34:38.230Z,1.40
2023-05-12T03:37:20.133Z,1.07
2023-05-12T03:39:53.315Z,1.30
2023-05-12T03:42:23.952Z,1.27
2023-05-12T03:45:04.436Z,1.67
2023-05-12T03:47:36.186Z,1.50
2023-05-12T03:50:14.255Z,1.17
2023-05-12T03:52:42.469Z,0.90
2023-05-12T03:55:14.892Z,0.80
2023-05-12T04:00:35.346Z,0.70
2023-05-12T04:03:11.975Z,0.80
2023-05-12T04:05:43.018Z,1.30
2023-05-12T04:08:12.803Z,0.80
2023-05-12T04:10:46.434Z,0.93
2023-05-12T04:13:17.895Z,1.00
2023-05-12T04:15:46.598Z,1.02
2023-05-12T04:18:18.921Z,0.63
2023-05-12T04:20:49.347Z,1.10
2023-05-12T04:23:21.099Z,1.13
2023-05-12T04:25:51.788Z,0.90
2023-05-12T04:28:21.372Z,0.97
2023-05-12T04:30:58.777Z,0.90
2023-05-12T04:33:30.975Z,0.70
2023-05-12T04:35:59.802Z,0.80
2023-05-12T04:38:32.368Z,0.67
2023-05-12T04:41:09.540Z,0.60
2023-05-12T04:46:24.199Z,1.00
2023-05-12T04:48:55.110Z,0.73
2023-05-12T04:51:28.547Z,0.70
2023-05-12T04:54:16.456Z,0.40
2023-05-12T04:56:57.023Z,0.50
2023-05-12T04:59:41.033Z,0.60
2023-05-12T05:02:19.106Z,0.57
2023-05-12T05:04:47.794Z,0.70
2023-05-12T05:07:21.540Z,0.60
2023-05-12T05:09:53.313Z,0.20
2023-05-12T05:12:22.282Z,0.27
2023-05-12T05:14:51.439Z,0.50
2023-05-12T05:17:30.137Z,0.40
2023-05-12T05:20:00.316Z,0.33
2023-05-12T05:22:34.429Z,0.57
2023-05-12T05:25:23.481Z,0.40
2023-05-12T05:27:53.468Z,0.40
2023-05-12T05:30:23.472Z,0.40
2023-05-12T05:33:06.039Z,0.30
2023-05-12T05:35:41.442Z,0.60
2023-05-12T05:38:13.616Z,0.40
2023-05-12T05:40:52.968Z,0.40
2023-05-12T05:43:25.700Z,0.40
2023-05-12T05:45:56.122Z,0.35
2023-05-12T05:48:24.212Z,0.80
2023-05-12T05:50:53.272Z,0.43
2023-05-12T05:53:23.955Z,0.50
2023-05-12T06:01:14.046Z,0.20
2023-05-12T06:03:49.583Z,0.37
2023-05-12T06:06:19.836Z,0.37
2023-05-12T06:08:51.243Z,0.23
2023-05-12T06:11:23.843Z,0.22
2023-05-12T06:13:51.552Z,0.40
2023-05-12T06:16:25.002Z,0.30
2023-05-12T06:18:53.414Z,0.60
2023-05-12T06:21:25.229Z,0.47
2023-05-12T06:24:03.827Z,0.57
2023-05-12T06:26:34.170Z,0.60
2023-05-12T06:29:12.617Z,0.43
2023-05-12T06:31:45.371Z,0.63
2023-05-12T06:34:18.150Z,0.87
2023-05-12T06:36:53.796Z,0.63
2023-05-12T06:39:23.955Z,0.63
2023-05-12T06:41:56.666Z,1.00
2023-05-12T06:44:31.555Z,0.90
2023-05-12T06:47:03.015Z,0.70
2023-05-12T06:49:47.578Z,0.57
2023-05-12T06:52:21.011Z,0.77
2023-05-12T06:57:22.213Z,0.73
2023-05-12T06:59:55.205Z,0.63
2023-05-12T07:02:25.767Z,0.70
2023-05-12T07:04:56.308Z,0.77
2023-05-12T07:07:26.696Z,0.40
2023-05-12T07:10:13.459Z,0.57
2023-05-12T07:12:44.159Z,0.93
2023-05-12T07:15:15.674Z,0.47
2023-05-12T07:17:44.628Z,0.90
2023-05-12T07:20:16.417Z,1.07
2023-05-12T07:22:50.639Z,0.70
2023-05-12T07:25:24.855Z,0.80
2023-05-12T07:27:59.996Z,0.80
2023-05-12T07:30:32.049Z,0.50
2023-05-12T07:33:04.838Z,0.93
2023-05-12T07:35:35.577Z,0.80
2023-05-12T07:38:19.785Z,0.47
2023-05-12T07:40:58.974Z,0.70
2023-05-12T07:43:30.596Z,0.50
2023-05-12T07:46:07.246Z,0.60
2023-05-12T07:48:47.604Z,0.40
2023-05-12T07:51:22.532Z,0.30
2023-05-12T07:53:52.859Z,0.50
2023-05-12T07:56:24.926Z,0.50
2023-05-12T07:58:56.985Z,0.60
2023-05-12T08:01:25.397Z,0.10
2023-05-12T08:04:01.547Z,0.30
2023-05-12T08:06:32.971Z,0.60
2023-05-12T08:09:21.159Z,0.20
2023-05-12T08:11:52.012Z,0.10
2023-05-12T08:14:22.788Z,0.77
2023-05-12T08:16:57.154Z,0.30
2023-05-12T08:19:28.652Z,0.30
2023-05-12T08:22:04.259Z,0.10
2023-05-12T08:24:35.638Z,0.20
2023-05-12T08:27:18.936Z,0.30
2023-05-12T08:29:49.932Z,0.10
2023-05-12T08:32:26.553Z,0.13
2023-05-12T08:34:54.963Z,0.30
2023-05-12T08:37:26.408Z,0.20
2023-05-12T08:40:01.238Z,0.10
2023-05-12T08:43:08.725Z,0.20
2023-05-12T08:45:45.518Z,0.10
2023-05-12T08:48:19.763Z,0.10
2023-05-12T08:50:54.071Z,0.10
2023-05-12T08:59:06.745Z,0.20
2023-05-12T09:01:44.010Z,0.40
2023-05-12T09:04:17.975Z,0.23
2023-05-12T09:06:47.111Z,0.20
2023-05-12T09:09:28.101Z,0.30
2023-05-12T09:12:03.238Z,0.20
2023-05-12T09:14:40.284Z,0.20
2023-05-12T09:17:23.296Z,0.23
2023-05-12T09:19:56.194Z,0.23
2023-05-12T09:22:38.458Z,0.17
2023-05-12T09:25:22.796Z,0.30
2023-05-12T09:27:59.592Z,0.20
2023-05-12T09:30:46.103Z,0.10
2023-05-12T09:33:16.518Z,0.10
2023-05-12T09:35:50.838Z,0.13
2023-05-12T09:38:39.370Z,0.10
2023-05-12T09:41:16.825Z,0.20
2023-05-12T09:43:47.834Z,0.67
2023-05-12T09:46:23.141Z,0.40
2023-05-12T09:48:53.300Z,0.20
2023-05-12T09:51:24.581Z,0.30
2023-05-12T09:53:55.095Z,0.20
2023-05-12T09:56:28.979Z,0.20
2023-05-12T10:01:41.068Z,0.70
2023-05-12T10:04:19.007Z,0.23
2023-05-12T10:09:42.483Z,0.20
2023-05-12T10:12:21.237Z,0.20
2023-05-12T10:14:51.982Z,0.20
2023-05-12T10:17:24.270Z,0.22
2023-05-12T10:19:59.690Z,0.10
2023-05-12T10:22:40.630Z,0.30
2023-05-12T10:25:14.770Z,0.30
2023-05-12T10:27:42.796Z,0.40
2023-05-12T10:30:14.177Z,0.10
2023-05-12T10:33:08.421Z,0.50
2023-05-12T10:35:51.694Z,0.30
2023-05-12T10:38:28.959Z,0.17
2023-05-12T10:41:10.351Z,0.20
2023-05-12T10:43:43.525Z,0.30
2023-05-12T10:46:24.581Z,0.40
2023-05-12T10:49:04.940Z,0.20
2023-05-12T10:51:56.960Z,0.20
2023-05-12T10:57:02.913Z,0.10
2023-05-12T10:59:48.738Z,0.30
2023-05-12T11:02:41.751Z,0.23
2023-05-12T11:05:19.457Z,0.20
2023-05-12T11:07:54.621Z,0.20
2023-05-12T11:10:29.318Z,0.10
2023-05-12T11:15:38.438Z,0.20
2023-05-12T11:18:11.378Z,0.27
2023-05-12T11:20:43.888Z,0.33
2023-05-12T11:23:13.735Z,0.10
2023-05-12T11:26:06.492Z,0.53
2023-05-12T11:28:47.984Z,0.37
2023-05-12T11:31:24.220Z,0.50
2023-05-12T11:34:13.097Z,0.40
2023-05-12T11:36:52.575Z,0.30
2023-05-12T11:39:23.567Z,0.30
2023-05-12T11:42:09.111Z,0.10
2023-05-12T11:44:55.708Z,0.20
2023-05-12T11:47:33.992Z,0.20
2023-05-12T11:50:16.884Z,0.27
2023-05-12T11:55:34.196Z,0.10
2023-05-12T11:58:04.718Z,0.20
2023-05-12T12:00:38.119Z,0.10
2023-05-12T12:03:15.844Z,0.13
2023-05-12T12:05:48.107Z,0.10
2023-05-12T12:08:25.051Z,0.07
2023-05-12T12:10:58.156Z,0.20
2023-05-12T12:13:41.533Z,0.10
2023-05-12T12:16:14.291Z,0.10
2023-05-12T12:18:52.470Z,0.10
2023-05-12T12:21:40.823Z,0.13
2023-05-12T12:24:13.058Z,0.00
2023-05-12T12:26:44.052Z,0.20
2023-05-12T12:29:16.242Z,0.10
2023-05-12T12:31:54.442Z,0.00
2023-05-12T12:34:38.499Z,0.30
2023-05-12T12:37:17.299Z,0.00
2023-05-12T12:39:47.695Z,0.03
2023-05-12T12:42:30.072Z,0.10
2023-05-12T12:45:06.034Z,0.10
2023-05-12T12:47:41.790Z,0.00
2023-05-12T12:50:13.679Z,0.20
2023-05-12T12:52:45.419Z,0.10
2023-05-12T12:58:20.312Z,0.20
2023-05-12T13:00:53.652Z,0.27
2023-05-12T13:03:25.960Z,0.17
2023-05-12T13:06:10.221Z,0.10
2023-05-12T13:08:40.277Z,0.30
2023-05-12T13:11:11.081Z,0.30
2023-05-12T13:13:39.784Z,0.17
2023-05-12T13:16:11.410Z,0.20
2023-05-12T13:21:17.335Z,0.00
2023-05-12T13:23:45.590Z,0.30
2023-05-12T13:26:24.428Z,0.10
2023-05-12T13:28:54.934Z,0.20
2023-05-12T13:31:26.552Z,0.10
2023-05-12T13:36:31.261Z,0.20
2023-05-12T13:41:40.603Z,0.10
2023-05-12T13:44:09.621Z,0.27
2023-05-12T13:46:41.037Z,0.30
2023-05-12T13:49:15.705Z,0.10
2023-05-12T13:51:43.640Z,0.13
2023-05-12T13:54:14.687Z,0.00
2023-05-12T13:59:34.974Z,0.30
2023-05-12T14:02:04.077Z,0.30
2023-05-12T14:04:45.087Z,0.30
2023-05-12T14:07:20.867Z,0.20
2023-05-12T14:09:53.596Z,0.40
2023-05-12T14:12:23.366Z,0.53
2023-05-12T14:15:21.789Z,1.07
2023-05-12T14:17:58.600Z,0.80
2023-05-12T14:20:35.653Z,1.70
2023-05-12T14:23:07.275Z,0.37
2023-05-12T14:25:40.312Z,1.08
2023-05-12T14:28:08.544Z,0.70
2023-05-12T14:30:43.799Z,0.30
2023-05-12T14:33:12.812Z,0.33
2023-05-12T14:36:03.260Z,0.10
2023-05-12T14:38:38.230Z,0.30
2023-05-12T14:41:10.080Z,0.30
2023-05-12T14:43:39.846Z,0.40
2023-05-12T14:46:15.120Z,0.57
2023-05-12T14:48:53.254Z,0.60
2023-05-12T14:51:22.560Z,0.30
2023-05-12T14:54:24.812Z,0.27
2023-05-12T14:56:59.411Z,0.23
2023-05-12T14:59:43.563Z,0.60
2023-05-12T15:02:13.610Z,0.17
2023-05-12T15:04:44.685Z,0.20
2023-05-12T15:07:15.386Z,0.10
2023-05-12T15:09:53.237Z,0.13
2023-05-12T15:12:24.029Z,0.10
2023-05-12T15:14:56.205Z,0.17
2023-05-12T15:17:25.029Z,0.33
2023-05-12T15:19:54.070Z,0.10
2023-05-12T15:22:24.087Z,0.10
2023-05-12T15:25:07.105Z,0.20
2023-05-12T15:27:37.093Z,0.30
2023-05-12T15:30:07.676Z,0.10
2023-05-12T15:32:44.016Z,0.23
2023-05-12T15:35:14.644Z,0.30
2023-05-12T15:37:54.333Z,0.20
2023-05-12T15:40:27.360Z,0.47
2023-05-12T15:43:16.397Z,0.40
2023-05-12T15:45:44.104Z,0.60
2023-05-12T15:48:14.561Z,0.40
2023-05-12T15:50:48.135Z,0.40
2023-05-12T15:53:19.984Z,0.60
2023-05-12T15:55:51.081Z,0.43
2023-05-12T15:58:24.711Z,0.40
2023-05-12T16:01:06.242Z,0.20
2023-05-12T16:03:35.982Z,0.30
2023-05-12T16:06:07.128Z,0.60
2023-05-12T16:08:39.413Z,0.30
2023-05-12T16:11:17.186Z,0.47
2023-05-12T16:13:48.211Z,0.70
2023-05-12T16:16:18.327Z,0.28
2023-05-12T16:18:48.402Z,0.60
2023-05-12T16:21:24.415Z,0.60
2023-05-12T16:23:54.435Z,0.87
2023-05-12T16:26:24.633Z,0.60
2023-05-12T16:28:54.330Z,0.70
2023-05-12T16:31:28.649Z,1.00
2023-05-12T16:34:04.300Z,0.60
2023-05-12T16:36:37.797Z,0.70
2023-05-12T16:39:08.999Z,0.50
2023-05-12T16:41:43.063Z,0.70
2023-05-12T16:44:18.474Z,0.70
2023-05-12T16:46:48.601Z,0.50
2023-05-12T16:49:26.436Z,0.80
2023-05-12T16:51:56.342Z,0.80
2023-05-12T16:54:26.486Z,0.50
2023-05-12T16:56:57.446Z,0.60
2023-05-12T16:59:27.318Z,0.60
2023-05-12T17:02:08.194Z,0.90
2023-05-12T17:04:39.270Z,1.42
2023-05-12T17:07:13.312Z,0.63
2023-05-12T17:09:50.901Z,1.27
2023-05-12T17:12:37.808Z,1.20
2023-05-12T17:15:18.537Z,0.80
2023-05-12T17:17:53.910Z,0.60
2023-05-12T17:20:22.006Z,0.77
2023-05-12T17:22:54.332Z,0.87
2023-05-12T17:25:29.575Z,0.63
2023-05-12T17:27:58.630Z,0.47
2023-05-12T17:30:35.857Z,0.70
2023-05-12T17:33:07.829Z,0.50
2023-05-12T17:35:50.835Z,0.30
2023-05-12T17:38:30.184Z,0.43
2023-05-12T17:40:58.552Z,0.90
2023-05-12T17:43:30.390Z,1.00
2023-05-12T17:48:45.301Z,0.80
2023-05-12T17:51:25.243Z,1.17
2023-05-12T17:53:57.814Z,0.50
2023-05-12T17:56:36.572Z,0.73
2023-05-12T17:59:07.654Z,1.10
2023-05-12T18:01:58.879Z,0.90
2023-05-12T18:04:29.524Z,0.70
2023-05-12T18:06:57.344Z,0.60
2023-05-12T18:09:27.708Z,0.90
2023-05-12T18:12:04.567Z,0.67
2023-05-12T18:14:37.270Z,0.90
2023-05-12T18:17:10.479Z,0.77
2023-05-12T18:19:44.491Z,0.73
2023-05-12T18:22:21.840Z,0.80
2023-05-12T18:24:54.663Z,0.63
2023-05-12T18:27:40.358Z,0.60
2023-05-12T18:30:17.291Z,0.97
2023-05-12T18:32:47.221Z,1.20
2023-05-12T18:35:25.563Z,1.00
2023-05-12T18:38:07.663Z,0.70
2023-05-12T18:40:44.353Z,0.77
2023-05-12T18:43:21.779Z,0.67
2023-05-12T18:45:53.374Z,0.83
2023-05-12T18:48:25.027Z,0.82
2023-05-12T18:50:54.348Z,1.00
2023-05-12T18:53:37.636Z,0.90
2023-05-12T18:56:08.545Z,1.03
2023-05-12T18:58:39.088Z,1.00
2023-05-12T19:01:11.844Z,1.00
2023-05-12T19:03:42.171Z,1.10
2023-05-12T19:06:19.952Z,1.13
2023-05-12T19:08:53.139Z,0.80
2023-05-12T19:11:29.405Z,0.93
2023-05-12T19:13:57.104Z,0.93
2023-05-12T19:16:35.015Z,0.70
2023-05-12T19:19:06.558Z,0.83
2023-05-12T19:21:43.521Z,0.80
2023-05-12T19:24:17.352Z,0.70
2023-05-12T19:26:47.387Z,1.10
2023-05-12T19:29:21.173Z,1.47
2023-05-12T19:31:54.928Z,1.20
2023-05-12T19:34:23.974Z,1.10
2023-05-12T19:37:01.119Z,1.00
2023-05-12T19:39:33.936Z,1.07
2023-05-12T19:42:04.733Z,1.50
2023-05-12T19:44:34.101Z,1.97
2023-05-12T19:47:06.932Z,2.40
2023-05-12T19:49:49.950Z,1.55
2023-05-12T19:52:23.469Z,3.53
2023-05-12T19:54:58.112Z,2.60
2023-05-12T19:57:36.816Z,2.90
2023-05-12T20:00:22.040Z,1.67
2023-05-12T20:02:52.724Z,1.37
2023-05-12T20:05:23.053Z,1.50
2023-05-12T20:07:54.659Z,1.70
2023-05-12T20:10:27.666Z,2.07
2023-05-12T20:12:59.914Z,2.57
2023-05-12T20:15:29.257Z,1.90
2023-05-12T20:18:04.644Z,1.17
2023-05-12T20:20:34.682Z,1.07
2023-05-12T20:23:05.649Z,1.20
2023-05-12T20:25:36.907Z,0.80
2023-05-12T20:28:04.855Z,1.05
2023-05-12T20:30:35.695Z,0.93
2023-05-12T20:38:19.358Z,0.73
2023-05-12T20:41:02.156Z,1.00
2023-05-12T20:43:34.090Z,0.90
2023-05-12T20:46:13.401Z,0.97
2023-05-12T20:48:46.301Z,1.03
2023-05-12T20:51:20.628Z,1.23
2023-05-12T20:53:51.182Z,0.90
2023-05-12T20:56:24.974Z,1.13
2023-05-12T20:58:53.804Z,1.30
2023-05-12T21:01:24.955Z,1.27
2023-05-12T21:03:55.250Z,1.20
2023-05-12T21:06:39.540Z,0.97
2023-05-12T21:09:08.873Z,0.70
2023-05-12T21:11:39.241Z,0.73
2023-05-12T21:14:10.935Z,0.73
2023-05-12T21:16:53.888Z,1.23
2023-05-12T21:19:27.009Z,0.90
2023-05-12T21:21:56.098Z,1.00
2023-05-12T21:24:28.817Z,2.37
2023-05-12T21:26:57.239Z,1.30
2023-05-12T21:29:28.971Z,0.87
2023-05-12T21:34:29.368Z,1.20
2023-05-12T21:36:59.477Z,1.40
2023-05-12T21:39:28.139Z,2.17
2023-05-12T21:42:02.785Z,1.47
2023-05-12T21:44:34.399Z,1.33
2023-05-12T21:47:07.756Z,1.70
2023-05-12T21:49:41.413Z,1.50
2023-05-12T21:52:16.050Z,1.53
2023-05-12T21:54:53.570Z,2.37
2023-05-12T21:57:24.205Z,1.40
2023-05-12T22:02:47.674Z,1.63
2023-05-12T22:05:23.912Z,1.17
2023-05-12T22:07:54.839Z,1.10
2023-05-12T22:10:34.749Z,1.45
2023-05-12T22:13:11.997Z,1.10
2023-05-12T22:16:03.077Z,1.10
2023-05-12T22:21:28.185Z,1.10
2023-05-12T22:24:05.473Z,1.20
2023-05-12T22:26:41.129Z,0.90
2023-05-12T22:29:11.824Z,2.00
2023-05-12T22:31:47.533Z,1.03
2023-05-12T22:34:18.594Z,1.30
2023-05-12T22:36:51.455Z,1.38
2023-05-12T22:39:25.422Z,1.20
2023-05-12T22:41:57.165Z,1.37
2023-05-12T22:44:26.390Z,1.33
2023-05-12T22:46:56.935Z,1.20
2023-05-12T22:49:26.405Z,1.30
2023-05-12T22:51:54.171Z,1.30
2023-05-12T22:54:25.027Z,1.03
2023-05-12T22:56:55.033Z,0.98
2023-05-12T22:59:37.709Z,0.60
2023-05-12T23:02:15.453Z,0.60
2023-05-12T23:04:45.308Z,0.83
2023-05-12T23:07:24.893Z,0.50
2023-05-12T23:10:00.540Z,0.80
2023-05-12T23:12:30.715Z,1.50
2023-05-12T23:15:04.480Z,1.00
2023-05-12T23:17:35.053Z,1.00
2023-05-12T23:20:10.323Z,1.00
2023-05-12T23:22:40.802Z,1.17
2023-05-12T23:25:11.334Z,1.07
2023-05-12T23:27:43.224Z,1.03
2023-05-12T23:30:20.924Z,0.90
2023-05-12T23:32:57.823Z,0.93
2023-05-12T23:35:28.519Z,0.93
2023-05-12T23:38:03.983Z,1.03
2023-05-12T23:40:34.339Z,1.10
2023-05-12T23:43:02.041Z,1.27
2023-05-12T23:45:39.836Z,1.10
2023-05-12T23:48:17.315Z,1.40
2023-05-12T23:50:48.037Z,1.50
2023-05-12T23:53:28.628Z,1.67
2023-05-12T23:56:00.857Z,0.90
2023-05-12T23:58:39.025Z,0.90
